createdAt,value
2015-10-05T00:00:26.601Z,81
2015-10-05T00:01:26.323Z,80.7
2015-10-05T00:02:26.279Z,80.5
2015-10-05T00:03:26.220Z,80.4
2015-10-05T00:04:26.160Z,80.6
2015-10-05T00:05:26.115Z,80.7
2015-10-05T00:06:26.056Z,81.2
2015-10-05T00:07:25.996Z,81.8
2015-10-05T00:08:25.953Z,82.5
2015-10-05T00:09:25.909Z,82.4
2015-10-05T00:10:25.833Z,82.1
2015-10-05T00:11:25.788Z,81.9
2015-10-05T00:12:25.964Z,81.3
2015-10-05T00:13:25.685Z,80.8
2015-10-05T00:14:25.625Z,80.7
2015-10-05T00:15:25.581Z,80.1
2015-10-05T00:16:25.520Z,80.4
2015-10-05T00:17:25.461Z,80.6
2015-10-05T00:18:25.417Z,80.1
2015-10-05T00:19:25.358Z,80.9
2015-10-05T00:20:25.297Z,82
2015-10-05T00:21:25.253Z,82
2015-10-05T00:22:25.428Z,81.8
2015-10-05T00:23:25.150Z,82
2015-10-05T00:24:25.090Z,81.6
2015-10-05T00:25:25.045Z,81.3
2015-10-05T00:26:24.985Z,81.2
2015-10-05T00:27:24.942Z,81
2015-10-05T00:28:24.882Z,80.3
2015-10-05T00:29:24.822Z,79.8
2015-10-05T00:30:24.763Z,80.3
2015-10-05T00:31:24.953Z,80
2015-10-05T00:32:24.659Z,79.7
2015-10-05T00:33:24.614Z,80
2015-10-05T00:34:24.555Z,80
2015-10-05T00:35:24.526Z,80
2015-10-05T00:36:24.466Z,80
2015-10-05T00:37:24.391Z,80.6
2015-10-05T00:38:24.328Z,80.3
2015-10-05T00:39:24.285Z,80
2015-10-05T00:40:24.224Z,80.3
2015-10-05T00:41:24.180Z,80.4
2015-10-05T00:42:24.371Z,81.4
2015-10-05T00:43:24.076Z,81.7
2015-10-05T00:44:24.016Z,81.2
2015-10-05T00:45:23.972Z,80.5
2015-10-05T00:46:23.929Z,80.2
2015-10-05T00:47:23.869Z,79.9
2015-10-05T00:48:23.809Z,79.8
2015-10-05T00:49:23.764Z,80.5
2015-10-05T00:50:23.705Z,81.5
2015-10-05T00:51:23.645Z,81.8
2015-10-05T00:52:23.601Z,81.8
2015-10-05T00:53:23.541Z,82.6
2015-10-05T00:54:23.481Z,82.3
2015-10-05T00:55:23.437Z,81.8
2015-10-05T00:56:23.377Z,81.4
2015-10-05T00:57:23.317Z,81
2015-10-05T00:58:23.274Z,81.1
2015-10-05T00:59:23.214Z,81
2015-10-05T01:00:23.154Z,81.3
2015-10-05T01:01:23.110Z,81.1
2015-10-05T01:02:23.051Z,81
2015-10-05T01:03:23.006Z,81.8
2015-10-05T01:04:22.962Z,82
2015-10-05T01:05:22.886Z,81.9
2015-10-05T01:06:22.842Z,81.8
2015-10-05T01:07:22.814Z,81.6
2015-10-05T01:08:22.739Z,82.2
2015-10-05T01:09:36.804Z,83
2015-10-05T01:10:22.634Z,82.8
2015-10-05T01:11:22.575Z,82.2
2015-10-05T01:12:22.515Z,81.8
2015-10-05T01:13:22.471Z,81.4
2015-10-05T01:14:22.426Z,81
2015-10-05T01:15:22.367Z,80.7
2015-10-05T01:16:22.307Z,80.2
2015-10-05T01:17:22.264Z,80.3
2015-10-05T01:18:22.203Z,80.2
2015-10-05T01:19:22.144Z,79.6
2015-10-05T01:20:22.100Z,79.9
2015-10-05T01:21:22.040Z,80.4
2015-10-05T01:22:21.996Z,80.7
2015-10-05T01:23:21.936Z,80.4
2015-10-05T01:24:21.892Z,80.6
2015-10-05T01:25:21.832Z,80.5
2015-10-05T01:26:21.772Z,80.5
2015-10-05T01:27:21.728Z,80.6
2015-10-05T01:28:21.666Z,82.4
2015-10-05T01:29:21.605Z,83.4
2015-10-05T01:30:21.561Z,84.8
2015-10-05T01:31:21.502Z,86.1
2015-10-05T01:32:21.442Z,86
2015-10-05T01:33:21.383Z,84.8
2015-10-05T01:34:21.354Z,83.1
2015-10-05T01:35:21.279Z,81.6
2015-10-05T01:36:21.234Z,81.5
2015-10-05T01:37:21.174Z,82
2015-10-05T01:38:21.130Z,81.8
2015-10-05T01:39:21.071Z,82.2
2015-10-05T01:40:21.027Z,81.1
2015-10-05T01:41:20.967Z,81
2015-10-05T01:42:20.908Z,80.8
2015-10-05T01:43:20.848Z,82
2015-10-05T01:44:20.788Z,83
2015-10-05T01:45:20.759Z,83
2015-10-05T01:46:20.683Z,82.2
2015-10-05T01:47:20.640Z,81.3
2015-10-05T01:48:20.611Z,81
2015-10-05T01:49:20.536Z,80.9
2015-10-05T01:50:20.476Z,81
2015-10-05T01:51:20.432Z,81.1
2015-10-05T01:52:20.372Z,81
2015-10-05T01:53:20.313Z,80.9
2015-10-05T01:54:20.269Z,81.4
2015-10-05T01:55:20.208Z,82.1
2015-10-05T01:56:20.149Z,81.9
2015-10-05T01:57:20.104Z,83
2015-10-05T01:58:20.044Z,82.3
2015-10-05T01:59:20.001Z,81.5
2015-10-05T02:00:19.941Z,81
2015-10-05T02:01:19.882Z,80.6
2015-10-05T02:02:19.837Z,80.5
2015-10-05T02:03:19.793Z,80
2015-10-05T02:04:19.968Z,80.6
2015-10-05T02:05:19.673Z,81.7
2015-10-05T02:06:19.613Z,81.4
2015-10-05T02:07:19.569Z,80.3
2015-10-05T02:08:19.526Z,79.9
2015-10-05T02:09:19.466Z,79.3
2015-10-05T02:10:19.406Z,79.5
2015-10-05T02:11:19.346Z,79.2
2015-10-05T02:12:19.302Z,79.1
2015-10-05T02:13:19.258Z,79.6
2015-10-05T02:14:19.199Z,80.6
2015-10-05T02:15:19.138Z,81.6
2015-10-05T02:16:19.076Z,82.2
2015-10-05T02:17:19.031Z,82.3
2015-10-05T02:18:19.206Z,81.5
2015-10-05T02:19:18.928Z,81.1
2015-10-05T02:20:18.868Z,81.4
2015-10-05T02:21:18.808Z,81.6
2015-10-05T02:22:18.748Z,81.8
2015-10-05T02:23:18.705Z,82.2
2015-10-05T02:24:18.660Z,81.8
2015-10-05T02:25:18.584Z,82
2015-10-05T02:26:18.540Z,81.8
2015-10-05T02:27:18.481Z,81.7
2015-10-05T02:28:18.437Z,81.6
2015-10-05T02:29:18.393Z,82
2015-10-05T02:30:18.318Z,82
2015-10-05T02:31:18.273Z,81.1
2015-10-05T02:32:18.213Z,81.3
2015-10-05T02:33:18.170Z,82.2
2015-10-05T02:34:18.110Z,83.1
2015-10-05T02:35:18.065Z,83.6
2015-10-05T02:36:17.990Z,83.6
2015-10-05T02:37:17.945Z,83.8
2015-10-05T02:38:17.886Z,84.2
2015-10-05T02:39:17.842Z,83.7
2015-10-05T02:40:17.782Z,84
2015-10-05T02:41:17.722Z,84.3
2015-10-05T02:42:17.662Z,84.9
2015-10-05T02:43:17.634Z,85.7
2015-10-05T02:44:17.793Z,86.4
2015-10-05T02:45:17.514Z,85.9
2015-10-05T02:46:17.455Z,86.1
2015-10-05T02:47:17.411Z,85.7
2015-10-05T02:48:17.585Z,85.9
2015-10-05T02:49:17.292Z,86.3
2015-10-05T02:50:17.278Z,84.6
2015-10-05T02:51:17.187Z,83.7
2015-10-05T02:52:17.127Z,83
2015-10-05T02:53:17.100Z,82.7
2015-10-05T02:54:17.039Z,82.3
2015-10-05T02:55:16.980Z,81.8
2015-10-05T02:56:16.936Z,81.6
2015-10-05T02:57:16.875Z,83
2015-10-05T02:58:16.816Z,82.6
2015-10-05T02:59:16.772Z,82.6
2015-10-05T03:00:16.711Z,82.8
2015-10-05T03:01:16.652Z,83.2
2015-10-05T03:02:16.608Z,84.6
2015-10-05T03:03:16.549Z,84.6
2015-10-05T03:04:16.738Z,84.7
2015-10-05T03:05:16.444Z,83.9
2015-10-05T03:06:16.400Z,83.2
2015-10-05T03:07:16.341Z,82.8
2015-10-05T03:08:16.296Z,82.5
2015-10-05T03:09:16.233Z,82.9
2015-10-05T03:10:16.174Z,82.5
2015-10-05T03:11:16.130Z,82.7
2015-10-05T03:12:16.071Z,82.3
2015-10-05T03:13:16.010Z,82.1
2015-10-05T03:14:15.982Z,82.3
2015-10-05T03:15:15.171Z,82.6
2015-10-05T03:16:15.877Z,83.7
2015-10-05T03:17:15.818Z,83.3
2015-10-05T03:18:15.743Z,83.1
2015-10-05T03:19:15.698Z,82.8
2015-10-05T03:20:15.654Z,82.7
2015-10-05T03:21:15.595Z,83
2015-10-05T03:22:15.535Z,83.1
2015-10-05T03:23:15.490Z,83.2
2015-10-05T03:24:15.431Z,83
2015-10-05T03:25:15.387Z,83
2015-10-05T03:26:15.343Z,83.2
2015-10-05T03:27:15.268Z,83.1
2015-10-05T03:28:15.207Z,82.6
2015-10-05T03:29:15.163Z,82.7
2015-10-05T03:30:15.120Z,82.9
2015-10-05T03:31:15.919Z,83.1
2015-10-05T03:32:15.438Z,82.8
2015-10-05T03:33:15.409Z,82.7
2015-10-05T03:34:15.037Z,82.4
2015-10-05T03:35:14.868Z,82.3
2015-10-05T03:38:29.437Z,81.9
2015-10-05T03:39:14.645Z,82
2015-10-05T03:40:14.600Z,82.8
2015-10-05T03:41:14.571Z,83.8
2015-10-05T03:42:14.715Z,84.2
2015-10-05T03:43:28.562Z,84.2
2015-10-05T03:44:28.517Z,83.6
2015-10-05T03:45:15.551Z,83.2
2015-10-05T03:46:14.506Z,83.2
2015-10-05T03:47:14.354Z,82.8
2015-10-05T03:48:14.403Z,82.9
2015-10-05T03:50:14.080Z,82.7
2015-10-05T03:52:28.133Z,83.7
2015-10-05T03:53:14.088Z,83.7
2015-10-05T03:54:14.373Z,83.8
2015-10-05T03:55:14.281Z,83.4
2015-10-05T03:56:14.394Z,83.4
2015-10-05T03:57:13.708Z,83.7
2015-10-05T03:58:13.664Z,83.6
2015-10-05T03:59:13.652Z,83.5
2015-10-05T04:00:13.467Z,82.8
2015-10-05T04:01:14.001Z,82.6
2015-10-05T04:02:13.457Z,82.3
2015-10-05T04:04:27.478Z,82.2
2015-10-05T04:05:13.916Z,82.4
2015-10-05T04:06:14.669Z,83.5
2015-10-05T04:07:13.405Z,83.5
2015-10-05T04:09:13.286Z,83.7
2015-10-05T04:10:13.038Z,83.6
2015-10-05T04:11:13.182Z,83.5
2015-10-05T04:12:13.357Z,84.1
2015-10-05T04:13:13.485Z,84.1
2015-10-05T04:14:12.815Z,83.2
2015-10-05T04:15:12.756Z,82.6
2015-10-05T04:16:12.930Z,82.2
2015-10-05T04:17:12.651Z,82.1
2015-10-05T04:18:12.592Z,82.4
2015-10-05T04:19:12.548Z,82.7
2015-10-05T04:20:12.488Z,82.5
2015-10-05T04:21:12.428Z,82.4
2015-10-05T04:22:12.385Z,82.4
2015-10-05T04:23:12.340Z,82.2
2015-10-05T04:24:12.265Z,81.5
2015-10-05T04:25:12.236Z,81.6
2015-10-05T04:26:12.161Z,81.5
2015-10-05T04:27:12.101Z,81.4
2015-10-05T04:28:12.073Z,81.8
2015-10-05T04:29:12.028Z,83.8
2015-10-05T04:30:11.953Z,85.2
2015-10-05T04:31:11.893Z,85.7
2015-10-05T04:32:11.849Z,84.5
2015-10-05T04:33:11.789Z,85.6
2015-10-05T04:34:11.010Z,85.8
2015-10-05T04:35:11.685Z,85.3
2015-10-05T04:36:11.626Z,85.3
2015-10-05T04:37:11.566Z,84.9
2015-10-05T04:38:11.522Z,84.6
2015-10-05T04:39:11.463Z,84.6
2015-10-05T04:40:11.418Z,85.7
2015-10-05T04:41:11.373Z,86.2
2015-10-05T04:42:11.298Z,86.6
2015-10-05T04:43:11.255Z,86.7
2015-10-05T04:44:11.195Z,85.7
2015-10-05T04:45:11.151Z,84.6
2015-10-05T04:46:11.091Z,83.6
2015-10-05T04:47:11.063Z,83.3
2015-10-05T04:48:10.985Z,83.1
2015-10-05T04:49:10.940Z,82.9
2015-10-05T04:50:10.879Z,82.4
2015-10-05T04:51:10.820Z,82.8
2015-10-05T04:52:10.995Z,83.2
2015-10-05T04:53:10.732Z,82.8
2015-10-05T04:54:10.672Z,82.6
2015-10-05T04:55:10.598Z,82.6
2015-10-05T04:56:10.553Z,82.9
2015-10-05T04:57:10.493Z,83.5
2015-10-05T04:58:10.449Z,84.4
2015-10-05T04:59:10.389Z,84.2
2015-10-05T05:00:10.345Z,84.3
2015-10-05T05:01:10.285Z,83.9
2015-10-05T05:02:10.226Z,83.7
2015-10-05T05:03:10.181Z,83.2
2015-10-05T05:04:10.122Z,82.8
2015-10-05T05:05:10.062Z,82.4
2015-10-05T05:06:10.033Z,82.7
2015-10-05T05:07:10.192Z,82.6
2015-10-05T05:08:10.148Z,81.9
2015-10-05T05:09:09.870Z,81.6
2015-10-05T05:10:09.795Z,81.6
2015-10-05T05:11:09.985Z,82.6
2015-10-05T05:12:09.690Z,83.3
2015-10-05T05:13:09.647Z,83.6
2015-10-05T05:14:09.587Z,83
2015-10-05T05:15:09.527Z,82.8
2015-10-05T05:16:09.498Z,83
2015-10-05T05:17:09.423Z,82.8
2015-10-05T05:18:09.379Z,82.7
2015-10-05T05:19:09.319Z,83
2015-10-05T05:20:09.258Z,82.9
2015-10-05T05:21:09.215Z,83.2
2015-10-05T05:22:09.155Z,83.3
2015-10-05T05:23:09.095Z,83.6
2015-10-05T05:24:09.036Z,83.3
2015-10-05T05:25:08.992Z,82.9
2015-10-05T05:26:08.947Z,83.1
2015-10-05T05:27:08.888Z,83.3
2015-10-05T05:28:08.827Z,83.3
2015-10-05T05:29:08.033Z,82.9
2015-10-05T05:30:08.725Z,83
2015-10-05T05:31:08.664Z,82.6
2015-10-05T05:32:08.604Z,82.2
2015-10-05T05:33:08.560Z,82.2
2015-10-05T05:34:08.500Z,82.2
2015-10-05T05:35:08.457Z,83.8
2015-10-05T05:36:08.396Z,84.7
2015-10-05T05:37:08.337Z,84.2
2015-10-05T05:38:08.293Z,83.7
2015-10-05T05:39:08.233Z,83
2015-10-05T05:40:08.188Z,83.2
2015-10-05T05:41:08.129Z,83.5
2015-10-05T05:42:08.066Z,83.9
2015-10-05T05:43:08.007Z,83.8
2015-10-05T05:44:07.962Z,83.6
2015-10-05T05:45:07.902Z,82.9
2015-10-05T05:46:07.859Z,82
2015-10-05T05:47:07.799Z,81.5
2015-10-05T05:48:07.739Z,81.2
2015-10-05T05:49:07.913Z,82
2015-10-05T05:50:07.635Z,82.4
2015-10-05T05:51:07.591Z,82.8
2015-10-05T05:52:07.516Z,82.7
2015-10-05T05:53:07.487Z,82.7
2015-10-05T05:54:07.412Z,83.3
2015-10-05T05:55:07.368Z,83.5
2015-10-05T05:56:07.308Z,83.5
2015-10-05T05:57:07.249Z,82.8
2015-10-05T05:58:07.204Z,83
2015-10-05T05:59:07.145Z,82.8
2015-10-05T06:00:07.084Z,82.6
2015-10-05T06:01:07.040Z,83.3
2015-10-05T06:02:06.996Z,84.5
2015-10-05T06:03:06.937Z,85.6
2015-10-05T06:04:06.877Z,85.5
2015-10-05T06:05:06.833Z,85.5
2015-10-05T06:06:06.773Z,85.6
2015-10-05T06:07:06.729Z,85.1
2015-10-05T06:08:06.670Z,84.4
2015-10-05T06:09:06.609Z,83.7
2015-10-05T06:10:06.565Z,83.4
2015-10-05T06:11:06.740Z,82.9
2015-10-05T06:12:06.445Z,82.7
2015-10-05T06:13:06.386Z,83
2015-10-05T06:14:06.341Z,83.3
2015-10-05T06:15:06.281Z,83.3
2015-10-05T06:16:06.238Z,83.6
2015-10-05T06:17:06.178Z,83.7
2015-10-05T06:18:06.134Z,84
2015-10-05T06:19:06.074Z,84.3
2015-10-05T06:20:06.014Z,85
2015-10-05T06:21:05.970Z,85.6
2015-10-05T06:22:05.911Z,84.9
2015-10-05T06:23:05.867Z,84
2015-10-05T06:24:05.807Z,84.4
2015-10-05T06:25:05.762Z,84.7
2015-10-05T06:26:05.936Z,86.1
2015-10-05T06:27:05.642Z,85.1
2015-10-05T06:28:05.599Z,85
2015-10-05T06:29:05.539Z,84.2
2015-10-05T06:30:05.479Z,83.4
2015-10-05T06:31:05.653Z,83.8
2015-10-05T06:32:05.375Z,84.7
2015-10-05T06:33:05.316Z,83.9
2015-10-05T06:34:05.256Z,83.8
2015-10-05T06:35:05.228Z,83.3
2015-10-05T06:36:05.150Z,83.7
2015-10-05T06:37:05.339Z,84.4
2015-10-05T06:38:05.045Z,85.3
2015-10-05T06:39:05.001Z,85.5
2015-10-05T06:40:04.941Z,85.8
2015-10-05T06:41:04.897Z,85.3
2015-10-05T06:42:04.852Z,85.5
2015-10-05T06:43:04.793Z,85.4
2015-10-05T06:44:04.733Z,85
2015-10-05T06:45:04.689Z,85.3
2015-10-05T06:46:04.614Z,85.5
2015-10-05T06:47:04.585Z,86
2015-10-05T06:48:04.526Z,84.8
2015-10-05T06:49:04.466Z,85.2
2015-10-05T06:50:04.422Z,85.3
2015-10-05T06:51:04.363Z,85.1
2015-10-05T06:52:04.318Z,85.6
2015-10-05T06:53:04.258Z,85.9
2015-10-05T06:54:04.214Z,84.9
2015-10-05T06:55:04.155Z,86.4
2015-10-05T06:56:03.938Z,86.7
2015-10-05T06:57:04.049Z,85.1
2015-10-05T06:58:04.004Z,86.1
2015-10-05T06:59:03.944Z,86.6
2015-10-05T07:00:03.885Z,86.6
2015-10-05T07:01:03.871Z,85.8
2015-10-05T07:02:03.780Z,85.2
2015-10-05T07:03:03.737Z,84.8
2015-10-05T07:04:03.693Z,84.5
2015-10-05T07:05:03.633Z,84.1
2015-10-05T07:06:03.574Z,83.8
2015-10-05T07:07:03.529Z,84.4
2015-10-05T07:08:03.469Z,83.9
2015-10-05T07:09:03.425Z,84.5
2015-10-05T07:10:03.366Z,84.8
2015-10-05T07:11:03.321Z,84.9
2015-10-05T07:12:03.262Z,84.7
2015-10-05T07:13:03.218Z,85
2015-10-05T07:14:03.157Z,84.3
2015-10-05T07:15:03.113Z,84.4
2015-10-05T07:16:03.053Z,84.1
2015-10-05T07:17:03.010Z,84.6
2015-10-05T07:18:02.942Z,84.1
2015-10-05T07:19:02.886Z,84.9
2015-10-05T07:20:02.829Z,84.8
2015-10-05T07:21:02.756Z,84.6
2015-10-05T07:22:02.699Z,85
2015-10-05T07:23:02.634Z,85
2015-10-05T07:24:02.569Z,85.7
2015-10-05T07:25:02.522Z,86.3
2015-10-05T07:26:02.475Z,86.6
2015-10-05T07:27:02.410Z,86.1
2015-10-05T07:28:01.611Z,86.1
2015-10-05T07:29:01.550Z,85
2015-10-05T07:30:02.238Z,85
2015-10-05T07:31:02.208Z,85.1
2015-10-05T07:32:02.132Z,85.3
2015-10-05T07:33:02.085Z,85.3
2015-10-05T07:34:02.040Z,85.2
2015-10-05T07:35:01.980Z,85.1
2015-10-05T07:36:01.936Z,85.4
2015-10-05T07:37:01.874Z,84.9
2015-10-05T07:38:01.830Z,84.8
2015-10-05T07:39:01.770Z,85.2
2015-10-05T07:40:01.726Z,84.9
2015-10-05T07:41:01.682Z,83.6
2015-10-05T07:42:01.653Z,84.5
2015-10-05T07:43:01.578Z,84.1
2015-10-05T07:44:01.518Z,84.6
2015-10-05T07:45:01.473Z,85.3
2015-10-05T07:46:01.414Z,84.9
2015-10-05T07:47:01.370Z,84.9
2015-10-05T07:48:01.326Z,84.6
2015-10-05T07:49:01.267Z,84.4
2015-10-05T07:50:01.206Z,84.3
2015-10-05T07:51:01.162Z,84.6
2015-10-05T07:52:01.118Z,85.1
2015-10-05T07:53:01.059Z,84.7
2015-10-05T07:54:00.264Z,84.8
2015-10-05T07:55:00.955Z,84.5
2015-10-05T07:56:00.911Z,85
2015-10-05T07:57:00.881Z,85.5
2015-10-05T07:58:00.807Z,86.3
2015-10-05T07:59:00.762Z,85
2015-10-05T08:00:00.703Z,84.7
2015-10-05T08:01:00.659Z,84.3
2015-10-05T08:02:00.630Z,84.9
2015-10-05T08:03:00.556Z,82.1
2015-10-05T08:04:00.511Z,81.6
2015-10-05T08:05:00.466Z,81
2015-10-05T08:06:00.392Z,80.2
2015-10-05T08:07:00.348Z,80.2
2015-10-05T08:08:00.303Z,79.7
2015-10-05T08:09:00.242Z,79.5
2015-10-05T08:10:00.183Z,80.1
2015-10-05T08:11:00.139Z,79.1
2015-10-05T08:12:00.077Z,77.8
2015-10-05T08:13:00.033Z,78.2
2015-10-05T08:13:59.973Z,78.4
2015-10-05T08:14:59.928Z,78.7
2015-10-05T08:15:59.869Z,79
2015-10-05T08:17:00.059Z,79.2
2015-10-05T08:18:00.014Z,79.9
2015-10-05T08:18:59.756Z,79.7
2015-10-05T08:19:59.681Z,79.7
2015-10-05T08:20:59.620Z,79.2
2015-10-05T08:21:59.576Z,79.2
2015-10-05T08:22:59.517Z,79.5
2015-10-05T08:23:59.706Z,79.4
2015-10-05T08:24:59.429Z,79.4
2015-10-05T08:25:59.385Z,79.6
2015-10-05T08:26:59.325Z,79.5
2015-10-05T08:27:59.265Z,79.8
2015-10-05T08:28:59.237Z,80.1
2015-10-05T08:29:59.176Z,79.5
2015-10-05T08:30:59.117Z,80.5
2015-10-05T08:31:59.073Z,80.2
2015-10-05T08:32:59.013Z,79.8
2015-10-05T08:33:58.969Z,79.6
2015-10-05T08:34:58.909Z,79.9
2015-10-05T08:35:58.865Z,79.7
2015-10-05T08:36:58.821Z,80.4
2015-10-05T08:37:58.776Z,80.2
2015-10-05T08:38:58.733Z,80.9
2015-10-05T08:39:58.673Z,80.4
2015-10-05T08:40:58.614Z,80.1
2015-10-05T08:41:58.569Z,80.3
2015-10-05T08:42:58.509Z,80.2
2015-10-05T08:43:58.481Z,80.3
2015-10-05T08:44:58.420Z,81.5
2015-10-05T08:45:58.377Z,79.7
2015-10-05T08:46:58.551Z,77.8
2015-10-05T08:47:58.272Z,77.8
2015-10-05T08:48:58.214Z,78.9
2015-10-05T08:49:58.169Z,79.4
2015-10-05T08:50:58.109Z,80.4
2015-10-05T08:51:58.064Z,80.2
2015-10-05T08:52:58.021Z,79.7
2015-10-05T08:53:57.961Z,78.8
2015-10-05T08:54:57.917Z,78.6
2015-10-05T08:55:57.872Z,77.6
2015-10-05T08:56:57.814Z,77.1
2015-10-05T08:57:57.785Z,76.7
2015-10-05T08:58:57.552Z,76.9
2015-10-05T08:59:57.665Z,76.8
2015-10-05T09:00:57.621Z,75.8
2015-10-05T09:01:57.558Z,75.7
2015-10-05T09:02:57.514Z,76.2
2015-10-05T09:03:57.470Z,76.8
2015-10-05T09:04:57.410Z,76.3
2015-10-05T09:05:57.366Z,76
2015-10-05T09:06:57.322Z,76.1
2015-10-05T09:07:57.496Z,77.2
2015-10-05T09:08:57.219Z,76.5
2015-10-05T09:09:57.158Z,75.6
2015-10-05T09:10:57.114Z,75.1
2015-10-05T09:11:57.054Z,74.7
2015-10-05T09:12:57.010Z,74.6
2015-10-05T09:13:56.951Z,75.3
2015-10-05T09:14:56.907Z,75.9
2015-10-05T09:15:56.863Z,75.5
2015-10-05T09:16:56.803Z,75.5
2015-10-05T09:17:56.758Z,75.3
2015-10-05T09:18:56.715Z,74.6
2015-10-05T09:19:56.655Z,74.7
2015-10-05T09:20:56.611Z,74.5
2015-10-05T09:21:56.566Z,73.6
2015-10-05T09:22:56.507Z,73.8
2015-10-05T09:23:56.463Z,74.1
2015-10-05T09:24:56.637Z,74.4
2015-10-05T09:25:56.374Z,74
2015-10-05T09:26:56.315Z,74.1
2015-10-05T09:27:56.271Z,74.3
2015-10-05T09:28:56.211Z,74.1
2015-10-05T09:29:56.152Z,74.1
2015-10-05T09:30:56.123Z,73.6
2015-10-05T09:31:56.062Z,73.2
2015-10-05T09:32:56.018Z,73.4
2015-10-05T09:33:55.959Z,73
2015-10-05T09:34:55.915Z,72.7
2015-10-05T09:35:55.855Z,72.9
2015-10-05T09:36:55.811Z,72.4
2015-10-05T09:37:55.767Z,72.8
2015-10-05T09:38:55.707Z,73.2
2015-10-05T09:39:55.663Z,73
2015-10-05T09:40:55.604Z,73.2
2015-10-05T09:41:55.794Z,73.9
2015-10-05T09:42:55.498Z,72.8
2015-10-05T09:43:55.454Z,72.9
2015-10-05T09:44:55.395Z,72.8
2015-10-05T09:45:55.351Z,72.2
2015-10-05T09:46:55.304Z,72.4
2015-10-05T09:47:55.276Z,72.4
2015-10-05T09:48:55.200Z,72.9
2015-10-05T09:49:55.156Z,72.6
2015-10-05T09:50:55.112Z,72.4
2015-10-05T09:51:55.053Z,73
2015-10-05T09:52:55.008Z,73.1
2015-10-05T09:53:54.964Z,72.4
2015-10-05T09:54:54.904Z,72.5
2015-10-05T09:55:54.860Z,71.8
2015-10-05T09:56:54.801Z,72.1
2015-10-05T09:57:54.756Z,72.4
2015-10-05T09:58:54.697Z,72.5
2015-10-05T09:59:54.653Z,71.8
2015-10-05T10:00:54.609Z,71.5
2015-10-05T10:01:54.548Z,71.1
2015-10-05T10:02:54.504Z,71.2
2015-10-05T10:03:54.460Z,70.9
2015-10-05T10:04:54.416Z,71.5
2015-10-05T10:05:54.356Z,71.3
2015-10-05T10:06:54.312Z,70.8
2015-10-05T10:07:54.267Z,71.2
2015-10-05T10:08:54.208Z,71.7
2015-10-05T10:09:54.148Z,71.3
2015-10-05T10:10:54.120Z,70.6
2015-10-05T10:11:54.060Z,71.1
2015-10-05T10:12:54.000Z,71.1
2015-10-05T10:13:53.972Z,71.1
2015-10-05T10:14:53.897Z,69.9
2015-10-05T10:15:53.852Z,68.9
2015-10-05T10:16:54.042Z,69.3
2015-10-05T10:17:53.749Z,69.5
2015-10-05T10:18:53.704Z,69.1
2015-10-05T10:19:53.660Z,68.6
2015-10-05T10:20:53.600Z,68
2015-10-05T10:21:53.556Z,68.7
2015-10-05T10:22:53.512Z,68.8
2015-10-05T10:23:53.453Z,67.6
2015-10-05T10:24:53.408Z,67.7
2015-10-05T10:25:53.364Z,67.9
2015-10-05T10:26:53.304Z,67.8
2015-10-05T10:27:53.260Z,67.9
2015-10-05T10:28:53.216Z,67.2
2015-10-05T10:29:53.157Z,68.4
2015-10-05T10:30:53.097Z,67.2
2015-10-05T10:31:53.069Z,67.6
2015-10-05T10:32:53.008Z,67.5
2015-10-05T10:33:52.949Z,67.3
2015-10-05T10:34:52.904Z,66.8
2015-10-05T10:35:52.860Z,65.8
2015-10-05T10:36:52.816Z,65.9
2015-10-05T10:37:52.757Z,66.2
2015-10-05T10:38:52.744Z,66.4
2015-10-05T10:39:52.684Z,65.5
2015-10-05T10:40:52.639Z,64.8
2015-10-05T10:41:52.592Z,65.2
2015-10-05T10:42:52.533Z,65.5
2015-10-05T10:43:52.488Z,65.9
2015-10-05T10:44:52.429Z,64.4
2015-10-05T10:45:52.384Z,64.2
2015-10-05T10:46:52.340Z,62.7
2015-10-05T10:47:52.281Z,63.7
2015-10-05T10:48:52.237Z,63.1
2015-10-05T10:49:52.193Z,62.5
2015-10-05T10:50:52.102Z,63
2015-10-05T10:51:52.276Z,62.9
2015-10-05T10:52:51.998Z,63.5
2015-10-05T10:53:51.937Z,64.1
2015-10-05T10:54:51.893Z,62.4
2015-10-05T10:55:51.850Z,63.5
2015-10-05T10:56:51.790Z,62.9
2015-10-05T10:57:51.746Z,61.6
2015-10-05T10:58:51.701Z,62
2015-10-05T10:59:51.657Z,61.8
2015-10-05T11:00:51.582Z,60.5
2015-10-05T11:01:51.553Z,59.8
2015-10-05T11:02:51.494Z,60.8
2015-10-05T11:03:51.434Z,61.9
2015-10-05T11:04:51.390Z,63.4
2015-10-05T11:05:51.346Z,62.6
2015-10-05T11:06:51.287Z,62
2015-10-05T11:07:51.242Z,60.1
2015-10-05T11:08:51.198Z,58.7
2015-10-05T11:09:51.138Z,59.5
2015-10-05T11:10:51.094Z,58.6
2015-10-05T11:11:51.050Z,59.6
2015-10-05T11:12:50.990Z,59.2
2015-10-05T11:13:50.945Z,58.6
2015-10-05T11:14:50.902Z,58.7
2015-10-05T11:15:50.686Z,58.4
2015-10-05T11:16:50.798Z,59.1
2015-10-05T11:17:50.753Z,59.8
2015-10-05T11:18:50.694Z,58.9
2015-10-05T11:19:50.634Z,58.1
2015-10-05T11:20:50.621Z,58.8
2015-10-05T11:21:50.547Z,58.6
2015-10-05T11:22:50.502Z,59.4
2015-10-05T11:23:50.442Z,59.5
2015-10-05T11:24:50.398Z,57.5
2015-10-05T11:25:50.353Z,57.2
2015-10-05T11:26:50.310Z,57.7
2015-10-05T11:27:50.250Z,58.2
2015-10-05T11:28:50.205Z,57
2015-10-05T11:29:50.146Z,55.6
2015-10-05T11:30:50.102Z,55.5
2015-10-05T11:31:50.039Z,55.3
2015-10-05T11:32:49.995Z,56.8
2015-10-05T11:33:49.966Z,56.4
2015-10-05T11:34:49.907Z,56.9
2015-10-05T11:35:49.863Z,58.3
2015-10-05T11:36:50.038Z,57.7
2015-10-05T11:37:49.758Z,58.1
2015-10-05T11:38:49.715Z,58.1
2015-10-05T11:39:49.671Z,57.2
2015-10-05T11:40:49.610Z,58
2015-10-05T11:41:49.582Z,59.1
2015-10-05T11:42:49.507Z,56.5
2015-10-05T11:43:49.307Z,56.5
2015-10-05T11:44:49.418Z,51
2015-10-05T11:45:49.374Z,50.9
2015-10-05T11:46:49.315Z,52.5
2015-10-05T11:47:49.271Z,50.6
2015-10-05T11:48:49.227Z,51.3
2015-10-05T11:49:49.198Z,50.3
2015-10-05T11:50:49.138Z,50.1
2015-10-05T11:51:49.063Z,49.4
2015-10-05T11:52:49.018Z,49.7
2015-10-05T11:53:48.974Z,49.6
2015-10-05T11:54:48.930Z,47.5
2015-10-05T11:55:48.137Z,47.5
2015-10-05T11:56:48.827Z,47.9
2015-10-05T11:57:48.783Z,46.2
2015-10-05T11:58:48.739Z,45.9
2015-10-05T11:59:48.679Z,47.2
2015-10-05T12:00:48.635Z,47.4
2015-10-05T12:01:48.590Z,47.5
2015-10-05T12:02:48.781Z,47.7
2015-10-05T12:03:48.487Z,48.3
2015-10-05T12:04:48.442Z,48.1
2015-10-05T12:05:48.398Z,47.8
2015-10-05T12:06:48.339Z,48.5
2015-10-05T12:07:48.310Z,48.6
2015-10-05T12:08:48.251Z,47.6
2015-10-05T12:09:48.206Z,49
2015-10-05T12:10:48.162Z,50.2
2015-10-05T12:11:48.102Z,50.6
2015-10-05T12:12:48.043Z,49.3
2015-10-05T12:13:48.015Z,48.4
2015-10-05T12:14:47.955Z,47.7
2015-10-05T12:15:47.910Z,47.8
2015-10-05T12:16:47.863Z,48.1
2015-10-05T12:17:47.804Z,49
2015-10-05T12:18:47.790Z,48.6
2015-10-05T12:19:47.731Z,49.5
2015-10-05T12:20:47.702Z,49.6
2015-10-05T12:21:47.611Z,49.9
2015-10-05T12:22:47.572Z,49.7
2015-10-05T12:23:47.527Z,50.4
2015-10-05T12:24:47.467Z,49.5
2015-10-05T12:25:47.424Z,49.8
2015-10-05T12:26:47.380Z,49.6
2015-10-05T12:27:47.320Z,49.8
2015-10-05T12:28:47.275Z,50.3
2015-10-05T12:29:47.247Z,48.6
2015-10-05T12:30:47.188Z,49.1
2015-10-05T12:31:47.128Z,48.5
2015-10-05T12:32:47.083Z,50
2015-10-05T12:33:47.044Z,49.2
2015-10-05T12:34:47.032Z,48.8
2015-10-05T12:35:46.956Z,48.9
2015-10-05T12:36:46.897Z,48.6
2015-10-05T12:37:46.696Z,49.3
2015-10-05T12:38:46.793Z,48.2
2015-10-05T12:39:46.749Z,46.8
2015-10-05T12:40:46.720Z,47.2
2015-10-05T12:41:47.051Z,48.1
2015-10-05T12:42:46.616Z,48.1
2015-10-05T12:43:46.571Z,48.6
2015-10-05T12:44:46.528Z,48.1
2015-10-05T12:45:46.468Z,48.4
2015-10-05T12:46:46.407Z,48.1
2015-10-05T12:47:46.364Z,48.1
2015-10-05T12:48:46.320Z,47.5
2015-10-05T12:49:46.276Z,48.8
2015-10-05T12:50:46.232Z,48
2015-10-05T12:51:46.188Z,46.7
2015-10-05T12:52:46.127Z,47.8
2015-10-05T12:53:45.927Z,47
2015-10-05T12:54:46.040Z,48.8
2015-10-05T12:55:45.979Z,47.7
2015-10-05T12:56:45.935Z,47.1
2015-10-05T12:57:45.891Z,46.6
2015-10-05T12:58:45.847Z,47.2
2015-10-05T12:59:45.804Z,47.6
2015-10-05T13:00:45.743Z,47.7
2015-10-05T13:01:45.699Z,47.2
2015-10-05T13:02:45.655Z,48.6
2015-10-05T13:03:45.595Z,47.4
2015-10-05T13:04:45.785Z,46.8
2015-10-05T13:05:45.508Z,47.2
2015-10-05T13:06:45.463Z,47.7
2015-10-05T13:07:45.637Z,48.2
2015-10-05T13:08:45.359Z,46.8
2015-10-05T13:09:45.315Z,47.1
2015-10-05T13:10:45.284Z,47.1
2015-10-05T13:11:45.223Z,47.5
2015-10-05T13:12:45.164Z,47.2
2015-10-05T13:13:45.136Z,47.3
2015-10-05T13:14:45.076Z,48.7
2015-10-05T13:15:45.032Z,48.6
2015-10-05T13:16:45.004Z,49.5
2015-10-05T13:17:44.943Z,48.3
2015-10-05T13:18:44.884Z,48.6
2015-10-05T13:19:44.840Z,49
2015-10-05T13:20:44.780Z,48.9
2015-10-05T13:21:44.736Z,48
2015-10-05T13:22:44.926Z,48.3
2015-10-05T13:23:44.647Z,49.4
2015-10-05T13:24:44.603Z,48.6
2015-10-05T13:25:44.559Z,46.8
2015-10-05T13:26:44.515Z,48.1
2015-10-05T13:27:44.706Z,48.7
2015-10-05T13:28:44.411Z,48.5